Terminal Aerodrome Forecast
Issued by NWS Sterling, VA

Current Version | Previous Version | Text Only | Print | Product List | Glossary Off
Versions: 1 2 3 4 5 6 7 8 9 10 11 12 13 14 15 16 17 18 19 20 21 22

140
FTUS41 KLWX 181738
TAFIAD
TAF
KIAD 181738Z 1818/1924 20008KT P6SM BKN250
     FM190100 24004KT P6SM BKN130
     FM190600 26004KT P6SM BKN060
     FM191400 31010KT P6SM SCT060=

USA.gov is the U.S. government's official web portal to all federal, state and local government web resources and services.